Time;durP1;ratioP1;P1;durP2;ratioP2;P2;SDS_P1;SDS_P2;PMS_P1;PMS_P2;Temp;Humidity;BMP_temperature;BMP_pressure;BME280_temperature;BME280_humidity;BME280_pressure;Samples;Min_cycle;Max_cycle;Signal;HPM_P1;HPM_P2
2024/03/14 00:02:11;;;;;;;12.65;11.35;;;13.30;99.90;;;13.52;100.00;101255.66;4959777;28;20431;-64
2024/03/14 00:04:40;;;;;;;12.43;11.18;;;13.20;99.90;;;13.54;100.00;101248.56;4959996;28;20050;-66
2024/03/14 00:07:09;;;;;;;14.73;10.38;;;13.20;99.90;;;13.53;100.00;101249.44;4943442;28;20104;-68
2024/03/14 00:09:38;;;;;;;12.50;10.68;;;13.20;99.90;;;13.47;100.00;101240.66;4958505;28;20050;-64
2024/03/14 00:12:07;;;;;;;14.73;10.73;;;13.20;99.90;;;13.48;100.00;101253.03;4958829;28;20066;-66
2024/03/14 00:14:35;;;;;;;12.85;11.38;;;13.20;99.90;;;13.44;100.00;101257.50;4958507;28;20105;-62
2024/03/14 00:17:04;;;;;;;12.98;10.13;;;13.10;99.90;;;13.45;100.00;101253.94;4942990;28;20042;-64
2024/03/14 00:19:33;;;;;;;11.70;10.50;;;13.10;99.90;;;13.43;100.00;101252.22;4958438;28;20125;-62
2024/03/14 00:22:03;;;;;;;11.45;10.35;;;13.10;99.90;;;13.42;100.00;101248.69;4943242;28;20043;-64
2024/03/14 00:24:31;;;;;;;12.52;10.98;;;13.20;99.90;;;13.43;100.00;101254.88;4958515;28;20046;-63
2024/03/14 00:27:00;;;;;;;11.07;9.98;;;13.10;99.90;;;13.37;100.00;101255.81;4958427;28;20050;-66
2024/03/14 00:29:30;;;;;;;11.52;10.43;;;13.10;99.90;;;13.41;100.00;101244.25;4958585;28;20038;-62
2024/03/14 00:31:59;;;;;;;11.82;10.38;;;13.10;99.90;;;13.39;100.00;101242.50;4943790;28;20058;-65
2024/03/14 00:34:27;;;;;;;11.30;10.20;;;13.10;99.90;;;13.38;100.00;101248.72;4958198;28;20513;-62
2024/03/14 00:36:56;;;;;;;12.93;9.95;;;13.10;99.90;;;13.34;100.00;101244.31;4942607;28;20050;-65
2024/03/14 00:39:26;;;;;;;12.43;9.73;;;13.10;99.90;;;13.31;100.00;101250.56;4958231;28;20046;-62
2024/03/14 00:41:55;;;;;;;12.93;10.85;;;13.00;99.90;;;13.34;100.00;101246.97;4958773;28;20043;-64
2024/03/14 00:44:24;;;;;;;10.82;9.73;;;13.00;99.90;;;13.34;100.00;101239.88;4958000;28;20065;-66
2024/03/14 00:46:52;;;;;;;11.65;10.30;;;13.10;99.90;;;13.31;100.00;101252.34;4958150;28;20057;-62
2024/03/14 00:49:23;;;;;;;11.15;10.05;;;13.00;99.90;;;13.22;100.00;101233.84;4958637;28;20481;-62
2024/03/14 00:51:52;;;;;;;11.70;10.50;;;13.00;99.90;;;13.24;100.00;101237.34;4958609;28;20057;-61
2024/03/14 00:54:20;;;;;;;11.70;10.10;;;13.00;99.90;;;13.21;100.00;101243.56;4957994;28;20050;-61
2024/03/14 00:56:49;;;;;;;13.25;9.90;;;12.90;99.90;;;13.16;100.00;101228.56;4958193;28;20092;-62
2024/03/14 00:59:18;;;;;;;10.95;9.95;;;12.90;99.90;;;13.23;100.00;101228.50;4957713;28;20047;-66
2024/03/14 01:01:47;;;;;;;11.35;10.23;;;12.90;99.90;;;13.23;100.00;101236.47;4957881;28;20412;-62
2024/03/14 01:04:17;;;;;;;12.15;9.60;;;13.00;99.90;;;13.23;100.00;101230.25;4958079;28;20061;-66
2024/03/14 01:06:47;;;;;;;10.82;9.73;;;12.90;99.90;;;13.19;100.00;101221.44;4943146;28;20144;-65
2024/03/14 01:09:16;;;;;;;11.00;9.93;;;12.90;99.90;;;13.19;100.00;101233.84;4962149;28;20097;-64
2024/03/14 01:11:45;;;;;;;10.52;9.52;;;12.90;99.90;;;13.22;100.00;101229.38;4961636;28;20039;-62
2024/03/14 01:14:13;;;;;;;10.82;9.73;;;12.90;99.90;;;13.24;100.00;101232.91;4961745;28;20065;-62
2024/03/14 01:16:42;;;;;;;11.63;9.45;;;12.90;99.90;;;13.21;100.00;101232.94;4945911;28;20140;-64
2024/03/14 01:19:12;;;;;;;14.90;9.88;;;12.90;99.90;;;13.20;100.00;101240.94;4962011;28;20045;-65
2024/03/14 01:21:41;;;;;;;12.80;10.10;;;12.90;99.90;;;13.18;100.00;101230.28;4961644;28;20591;-64
2024/03/14 01:24:10;;;;;;;12.05;10.77;;;12.90;99.90;;;13.18;100.00;101222.31;4945822;28;20538;-62
2024/03/14 01:26:38;;;;;;;12.20;10.00;;;12.90;99.90;;;13.24;100.00;101222.28;4945995;28;20046;-62
2024/03/14 01:29:07;;;;;;;11.95;10.40;;;13.00;99.90;;;13.25;100.00;101224.06;4945581;28;20104;-65
2024/03/14 01:31:36;;;;;;;13.45;10.10;;;13.00;99.90;;;13.15;100.00;101217.06;4960913;28;20113;-66
2024/03/14 01:34:05;;;;;;;11.02;9.70;;;12.90;99.90;;;13.18;100.00;101217.00;4961145;28;20137;-65
2024/03/14 01:36:36;;;;;;;13.18;11.05;;;12.90;99.90;;;13.15;100.00;101216.16;4961203;28;20496;-64
2024/03/14 01:39:05;;;;;;;13.50;10.88;;;12.90;99.90;;;13.11;100.00;101210.00;4961710;28;20046;-61
2024/03/14 01:41:34;;;;;;;11.60;10.10;;;12.80;99.90;;;13.12;100.00;101203.81;4961045;28;20039;-62
2024/03/14 01:44:03;;;;;;;12.20;10.52;;;12.80;99.90;;;13.12;100.00;101198.50;4961269;28;20164;-63
2024/03/14 01:46:31;;;;;;;14.50;10.43;;;12.80;99.90;;;13.11;100.00;101188.75;4961072;28;20093;-62
2024/03/14 01:49:00;;;;;;;11.63;10.48;;;12.80;99.90;;;13.12;100.00;101190.53;4960997;28;20053;-64
2024/03/14 01:51:29;;;;;;;11.55;10.35;;;12.80;99.90;;;13.08;100.00;101196.78;4960971;28;20523;-64
2024/03/14 01:53:59;;;;;;;12.35;10.55;;;12.80;99.90;;;13.09;100.00;101192.31;4961320;28;20498;-62
2024/03/14 01:56:28;;;;;;;12.50;10.30;;;12.80;99.90;;;13.10;100.00;101187.03;4961858;28;20050;-61
2024/03/14 01:58:56;;;;;;;12.88;10.90;;;12.80;99.90;;;13.04;100.00;101187.06;4961533;28;20057;-62
2024/03/14 02:01:25;;;;;;;13.13;10.68;;;12.70;99.90;;;13.01;100.00;101186.16;4960748;28;20129;-64
2024/03/14 02:03:54;;;;;;;12.77;10.90;;;12.70;99.90;;;13.01;100.00;101181.75;4960858;28;20035;-62
2024/03/14 02:06:23;;;;;;;11.93;10.73;;;12.70;99.90;;;13.03;100.00;101181.72;4960897;28;20053;-64
2024/03/14 02:08:52;;;;;;;11.15;10.05;;;12.70;99.90;;;13.00;100.00;101179.09;4960911;28;20039;-61
2024/03/14 02:11:21;;;;;;;13.57;11.15;;;12.70;99.90;;;12.99;100.00;101172.91;4960779;28;20571;-63
2024/03/14 02:13:50;;;;;;;13.77;11.73;;;12.70;99.90;;;12.95;100.00;101163.19;4960721;28;20076;-62
2024/03/14 02:16:19;;;;;;;14.30;11.00;;;12.60;99.90;;;12.88;100.00;101164.16;4960359;28;20046;-64
2024/03/14 02:18:47;;;;;;;14.02;10.68;;;12.60;99.90;;;12.87;100.00;101162.44;4944057;28;20045;-62
2024/03/14 02:21:16;;;;;;;11.95;10.75;;;12.60;99.90;;;12.84;100.00;101167.75;4960736;28;20133;-67
2024/03/14 02:23:44;;;;;;;13.48;11.30;;;12.60;99.90;;;12.84;100.00;101142.97;4960400;28;20038;-62
2024/03/14 02:26:13;;;;;;;12.38;10.93;;;12.50;99.90;;;12.86;100.00;101149.13;4960256;28;20415;-64
2024/03/14 02:28:41;;;;;;;13.15;11.40;;;12.60;99.90;;;12.89;100.00;101149.13;4944635;28;20056;-64
2024/03/14 02:31:10;;;;;;;13.65;10.52;;;12.60;99.90;;;12.82;100.00;101142.09;4961337;28;20132;-63
2024/03/14 02:33:38;;;;;;;14.20;11.60;;;12.60;99.90;;;12.81;100.00;101135.03;4963848;28;20046;-62
2024/03/14 02:36:07;;;;;;;12.75;11.45;;;12.50;99.90;;;12.83;100.00;101134.13;4963673;28;20049;-64
2024/03/14 02:38:36;;;;;;;14.90;10.98;;;12.60;99.90;;;12.74;100.00;101134.19;4963769;28;20054;-64
2024/03/14 02:41:04;;;;;;;17.23;11.52;;;12.50;99.90;;;12.77;100.00;101141.28;4947791;28;20061;-62
2024/03/14 02:43:33;;;;;;;12.15;10.88;;;12.50;99.90;;;12.83;100.00;101141.22;4963511;28;20049;-65
2024/03/14 02:46:01;;;;;;;12.88;11.55;;;12.50;99.90;;;12.80;100.00;101144.75;4963690;28;20116;-62
2024/03/14 02:48:30;;;;;;;13.15;11.75;;;12.50;99.90;;;12.74;100.00;101139.50;4963899;28;20069;-65
2024/03/14 02:50:58;;;;;;;14.95;11.70;;;12.50;99.90;;;12.74;100.00;101141.31;4963472;28;20054;-62
2024/03/14 02:53:29;;;;;;;13.50;11.52;;;12.40;99.90;;;12.84;100.00;101135.00;4963670;28;20042;-61
2024/03/14 02:55:58;;;;;;;12.65;11.32;;;12.50;99.90;;;12.79;100.00;101132.41;4964326;28;20053;-64
2024/03/14 02:58:26;;;;;;;14.40;11.98;;;12.50;99.90;;;12.76;100.00;101121.78;4963711;28;20050;-64
2024/03/14 03:00:55;;;;;;;12.95;11.55;;;12.50;99.90;;;12.72;100.00;101127.16;4947493;28;20053;-61
2024/03/14 03:03:24;;;;;;;14.65;11.23;;;12.50;99.90;;;12.71;100.00;101110.34;4963511;28;20045;-63
2024/03/14 03:05:54;;;;;;;12.45;11.15;;;12.40;99.90;;;12.74;100.00;101110.31;4963956;28;20073;-62
2024/03/14 03:08:23;;;;;;;14.90;11.45;;;12.40;99.90;;;12.72;100.00;101109.44;4963132;28;20041;-63
2024/03/14 03:10:51;;;;;;;11.70;10.52;;;12.40;99.90;;;12.70;100.00;101113.88;4963415;28;20046;-63
2024/03/14 03:13:20;;;;;;;14.35;11.23;;;12.40;99.90;;;12.63;100.00;101099.81;4962996;28;20054;-64
2024/03/14 03:15:49;;;;;;;12.73;11.07;;;12.40;99.90;;;12.73;100.00;101113.00;4963511;28;20049;-62
2024/03/14 03:18:17;;;;;;;12.77;10.98;;;12.50;99.90;;;12.74;100.00;101120.94;4962882;28;20519;-64
2024/03/14 03:20:46;;;;;;;13.10;10.95;;;12.50;99.90;;;12.76;100.00;101120.91;4962888;28;20100;-63
2024/03/14 03:23:17;;;;;;;14.88;10.88;;;12.50;99.90;;;12.76;100.00;101115.59;4962829;28;20061;-62
2024/03/14 03:25:44;;;;;;;13.15;10.98;;;12.50;99.90;;;12.83;100.00;101115.56;4963395;28;20096;-64
2024/03/14 03:28:13;;;;;;;13.05;10.07;;;12.50;99.90;;;12.85;100.00;101112.88;4946578;28;20435;-62
2024/03/14 03:30:41;;;;;;;12.88;11.13;;;12.60;99.90;;;12.77;100.00;101114.72;4961823;28;20058;-66
2024/03/14 03:33:11;;;;;;;13.77;11.02;;;12.60;99.90;;;12.78;100.00;101114.69;4962111;28;20053;-64
2024/03/14 03:35:42;;;;;;;12.32;10.43;;;12.50;99.90;;;12.77;100.00;101122.69;4963705;28;20478;-63
2024/03/14 03:38:13;;;;;;;13.02;11.38;;;12.50;99.90;;;12.49;100.00;101076.94;4963404;28;20046;-65
2024/03/14 03:40:41;;;;;;;13.73;11.38;;;12.50;99.90;;;12.72;100.00;101119.22;4963318;28;20046;-64
2024/03/14 03:43:11;;;;;;;12.70;11.38;;;12.40;99.90;;;12.66;100.00;101121.00;4962092;28;20466;-61
2024/03/14 03:45:38;;;;;;;13.60;11.45;;;12.40;99.90;;;12.68;100.00;101111.25;4946801;28;20041;-62
2024/03/14 03:48:09;;;;;;;14.07;12.20;;;12.40;99.90;;;12.70;100.00;101111.22;4946198;28;20041;-62
2024/03/14 03:50:36;;;;;;;12.90;11.25;;;12.40;99.90;;;12.62;100.00;101107.75;4962967;28;20037;-61
2024/03/14 03:53:06;;;;;;;12.88;11.57;;;12.40;99.90;;;12.58;100.00;101104.25;4946215;28;20096;-62
2024/03/14 03:55:33;;;;;;;13.50;12.10;;;12.30;99.90;;;12.63;100.00;101110.44;4946623;28;20058;-63
2024/03/14 03:58:02;;;;;;;13.45;12.15;;;12.30;99.90;;;12.57;100.00;101097.22;4946135;28;20051;-63
2024/03/14 04:00:41;;;;;;;14.00;11.80;;;12.30;99.90;;;12.55;100.00;101104.31;4946242;28;20081;-62
2024/03/14 04:03:11;;;;;;;14.80;12.25;;;12.30;99.90;;;12.64;100.00;101105.97;4967229;28;20053;-64
2024/03/14 04:05:42;;;;;;;14.38;12.93;;;12.30;99.90;;;12.66;100.00;101099.78;4962398;28;20498;-61
2024/03/14 04:08:10;;;;;;;15.50;12.10;;;12.40;99.90;;;12.66;100.00;101104.19;4962764;28;20483;-63
2024/03/14 04:10:38;;;;;;;13.13;11.57;;;12.40;99.90;;;12.70;100.00;101111.22;4945714;28;20048;-61
2024/03/14 04:13:11;;;;;;;13.98;12.13;;;12.40;99.90;;;12.65;100.00;101110.41;4946034;28;20034;-65
2024/03/14 04:15:39;;;;;;;14.68;12.52;;;12.40;99.90;;;12.62;100.00;101105.09;4963832;28;20045;-62
2024/03/14 04:18:08;;;;;;;15.40;12.70;;;12.40;99.90;;;12.52;100.00;101111.41;4962035;28;20042;-63
2024/03/14 04:20:38;;;;;;;14.35;12.70;;;12.30;99.90;;;12.55;100.00;101116.69;4946099;28;20081;-61
2024/03/14 04:23:07;;;;;;;14.63;13.10;;;12.30;99.90;;;12.45;100.00;101102.63;4962446;28;20038;-61
2024/03/14 04:25:36;;;;;;;16.08;13.32;;;12.20;99.90;;;12.42;100.00;101094.69;4945684;28;20045;-64
2024/03/14 04:28:07;;;;;;;14.82;13.27;;;12.20;99.90;;;12.31;100.00;101098.31;4961923;28;20502;-62
2024/03/14 04:30:36;;;;;;;16.80;13.68;;;12.10;99.90;;;12.31;100.00;101101.84;4962741;28;20119;-66
2024/03/14 04:33:07;;;;;;;15.30;13.45;;;12.10;99.90;;;12.35;100.00;101110.69;4958243;28;20088;-65
2024/03/14 04:35:36;;;;;;;14.88;13.38;;;12.10;99.90;;;12.19;100.00;101096.66;4958421;28;20141;-62
2024/03/14 04:38:05;;;;;;;16.27;14.57;;;12.00;99.90;;;12.16;100.00;101090.47;4942410;28;20141;-66
2024/03/14 04:40:33;;;;;;;17.08;14.52;;;11.90;99.90;;;12.06;100.00;101094.09;4957825;28;20050;-65
2024/03/14 04:43:04;;;;;;;17.05;15.25;;;11.90;99.90;;;12.01;100.00;101101.19;4957612;28;20550;-61
2024/03/14 04:45:33;;;;;;;18.02;15.32;;;11.80;99.90;;;12.05;100.00;101090.56;4958882;28;20054;-65
2024/03/14 04:48:04;;;;;;;17.92;15.02;;;11.80;99.90;;;12.03;100.00;101095.00;4958400;28;20097;-64
2024/03/14 04:50:34;;;;;;;17.90;15.68;;;11.80;99.90;;;12.06;100.00;101094.94;4944142;28;20526;-65
2024/03/14 04:53:04;;;;;;;18.27;16.23;;;11.70;99.90;;;12.09;100.00;101094.94;4957989;28;20085;-67
2024/03/14 04:55:33;;;;;;;17.88;15.80;;;11.80;99.90;;;12.03;100.00;101087.03;4957850;28;20061;-61
2024/03/14 04:58:02;;;;;;;18.10;16.15;;;11.80;99.90;;;12.02;100.00;101087.06;4942253;28;20132;-63
2024/03/14 05:00:31;;;;;;;20.25;17.73;;;11.70;99.90;;;11.98;100.00;101080.00;4957976;28;20038;-61
2024/03/14 05:03:00;;;;;;;21.52;18.00;;;11.70;99.90;;;11.97;100.00;101084.41;4957992;28;20061;-64
2024/03/14 05:05:29;;;;;;;21.40;17.77;;;11.70;99.90;;;11.93;100.00;101076.50;4957598;28;20038;-66
2024/03/14 05:07:58;;;;;;;22.50;19.50;;;11.70;99.90;;;11.76;100.00;101069.53;4958083;28;20046;-62
2024/03/14 05:10:26;;;;;;;22.20;19.33;;;11.60;99.90;;;11.87;100.00;101076.53;4957765;28;20408;-65
2024/03/14 05:12:57;;;;;;;22.88;19.33;;;11.60;99.90;;;11.84;100.00;101080.09;4957856;28;20714;-62
2024/03/14 05:15:26;;;;;;;25.52;20.70;;;11.60;99.90;;;11.87;100.00;101090.66;4958587;28;20051;-67
2024/03/14 05:18:01;;;;;;;24.60;19.92;;;11.60;99.90;;;11.83;100.00;101088.91;4958062;28;20559;-61
2024/03/14 05:20:30;;;;;;;24.50;21.10;;;11.60;99.90;;;11.92;100.00;101090.66;4959838;28;20170;-62
2024/03/14 05:22:59;;;;;;;26.45;21.10;;;11.60;99.90;;;11.82;100.00;101084.53;4957690;28;20120;-63
2024/03/14 05:25:27;;;;;;;24.20;20.88;;;11.60;99.90;;;11.89;100.00;101090.66;4941939;28;20042;-61
2024/03/14 05:27:56;;;;;;;25.85;20.40;;;11.60;99.90;;;11.87;100.00;101089.78;4957501;28;20472;-62
2024/03/14 05:30:24;;;;;;;25.88;22.08;;;11.60;99.90;;;11.82;100.00;101083.63;4957954;28;20502;-64
2024/03/14 05:32:53;;;;;;;27.80;21.80;;;11.60;99.90;;;11.81;100.00;101092.50;4957793;28;20062;-62
2024/03/14 05:35:22;;;;;;;26.30;22.13;;;11.50;99.90;;;11.79;100.00;101085.41;4958111;28;20050;-66
2024/03/14 05:37:50;;;;;;;28.33;22.35;;;11.50;99.90;;;11.79;100.00;101082.75;4942287;28;20051;-64
2024/03/14 05:40:18;;;;;;;25.45;21.15;;;11.50;99.90;;;11.83;100.00;101086.28;4958033;28;20042;-64
2024/03/14 05:42:47;;;;;;;27.45;22.90;;;11.50;99.90;;;11.84;100.00;101087.16;4942446;28;20130;-61
2024/03/14 05:45:16;;;;;;;29.52;22.42;;;11.50;99.90;;;11.77;100.00;101087.19;4957471;28;20038;-62
2024/03/14 05:47:45;;;;;;;27.50;22.70;;;11.50;99.90;;;11.77;100.00;101089.84;4942104;28;20053;-64
2024/03/14 05:50:15;;;;;;;25.80;22.92;;;11.50;99.90;;;11.65;100.00;101089.00;4957605;28;20050;-63
2024/03/14 05:52:45;;;;;;;31.05;23.92;;;11.40;99.90;;;11.71;100.00;101089.88;4957919;28;20089;-62
2024/03/14 05:55:15;;;;;;;31.80;22.98;;;11.40;99.90;;;11.72;100.00;101086.34;4960448;28;20050;-63
2024/03/14 05:57:43;;;;;;;28.15;22.88;;;11.40;99.90;;;11.71;100.00;101076.63;4960990;28;20439;-61
2024/03/14 06:00:13;;;;;;;32.47;23.05;;;11.40;99.90;;;11.60;100.00;101077.53;4961118;28;20224;-61
2024/03/14 06:02:42;;;;;;;31.58;23.02;;;11.40;99.90;;;11.62;100.00;101076.66;4945435;28;20053;-64
2024/03/14 06:05:10;;;;;;;28.52;23.25;;;11.40;99.90;;;11.55;100.00;101080.22;4960924;28;20089;-66
2024/03/14 06:07:39;;;;;;;29.48;22.92;;;11.40;99.90;;;11.59;100.00;101076.66;4960759;28;20039;-62
2024/03/14 06:10:09;;;;;;;27.38;22.73;;;11.30;99.90;;;11.65;100.00;101081.06;4960727;28;20038;-61
2024/03/14 06:12:38;;;;;;;28.07;22.53;;;11.40;99.90;;;11.62;100.00;101062.50;4961101;28;20042;-64
2024/03/14 06:15:08;;;;;;;26.88;23.13;;;11.40;99.90;;;11.64;100.00;101077.53;4944908;28;20042;-63
2024/03/14 06:17:37;;;;;;;29.27;23.55;;;11.40;99.90;;;11.69;100.00;101070.44;4961367;28;20057;-63
2024/03/14 06:20:09;;;;;;;30.05;23.23;;;11.40;99.90;;;11.70;100.00;101074.88;4944417;28;20245;-64
2024/03/14 06:22:39;;;;;;;27.20;23.00;;;11.40;99.90;;;11.74;100.00;101066.03;4960903;28;20092;-63
2024/03/14 06:25:10;;;;;;;29.80;24.17;;;11.50;99.90;;;11.84;100.00;101071.25;4961074;28;20042;-64
2024/03/14 06:27:41;;;;;;;27.42;23.48;;;11.60;99.90;;;11.96;100.00;101068.53;4961313;28;20042;-62
2024/03/14 06:30:11;;;;;;;25.77;22.48;;;11.60;99.90;;;12.04;100.00;101072.00;4960919;28;20193;-62
2024/03/14 06:32:47;;;;;;;30.63;23.05;;;11.80;99.90;;;12.09;100.00;101065.78;4946817;28;20054;-65
2024/03/14 06:35:18;;;;;;;29.73;22.63;;;11.90;99.90;;;12.18;100.00;101072.78;4946018;28;20053;-64
2024/03/14 06:37:49;;;;;;;24.45;21.75;;;11.90;99.90;;;12.25;100.00;101070.06;4961088;28;20076;-63
2024/03/14 06:40:21;;;;;;;29.23;22.35;;;12.00;99.90;;;12.46;100.00;101074.31;4960829;28;20062;-62
2024/03/14 06:42:50;;;;;;;25.65;21.25;;;12.20;99.90;;;12.61;100.00;101074.16;4944998;28;20054;-64
2024/03/14 06:45:19;;;;;;;25.75;21.60;;;12.30;99.90;;;12.79;100.00;101079.31;4959984;28;20045;-62
2024/03/14 06:47:48;;;;;;;26.63;20.93;;;12.50;99.90;;;12.96;100.00;101072.03;4960129;28;20047;-66
2024/03/14 06:50:16;;;;;;;25.17;20.77;;;12.70;99.90;;;13.08;100.00;101068.41;4960016;28;20324;-63
2024/03/14 06:52:48;;;;;;;22.95;20.45;;;12.80;99.90;;;13.21;100.00;101078.88;4960355;28;20056;-65
2024/03/14 06:55:16;;;;;;;25.73;20.33;;;12.90;99.90;;;13.38;100.00;101074.22;4960103;28;20046;-64
2024/03/14 06:57:45;;;;;;;23.77;19.48;;;13.10;99.90;;;13.30;100.00;101061.94;4959894;28;20054;-62
2024/03/14 07:00:16;;;;;;;24.50;20.27;;;13.10;99.90;;;13.50;99.60;101076.75;4959827;28;20062;-67
2024/03/14 07:02:48;;;;;;;23.35;19.60;;;13.20;99.90;;;13.65;99.39;101075.63;4960477;28;20051;-62
2024/03/14 07:05:17;;;;;;;24.58;19.50;;;13.30;99.90;;;13.70;98.23;101083.56;4959874;28;20125;-61
2024/03/14 07:07:45;;;;;;;22.40;18.10;;;13.40;99.90;;;13.86;98.12;101079.78;4959189;28;20042;-65
2024/03/14 07:10:14;;;;;;;22.52;18.42;;;13.60;99.90;;;13.89;97.57;101077.97;4959947;28;20156;-63
2024/03/14 07:12:45;;;;;;;22.75;18.23;;;13.60;99.90;;;14.02;97.05;101070.66;4959986;28;20541;-61
2024/03/14 07:15:15;;;;;;;21.50;17.33;;;13.70;99.90;;;14.19;96.30;101079.25;4959918;28;20104;-64
2024/03/14 07:17:44;;;;;;;21.23;18.42;;;13.90;99.90;;;14.01;96.21;101063.59;4959921;28;20129;-61
2024/03/14 07:20:17;;;;;;;24.15;17.50;;;13.80;99.90;;;14.23;95.69;101083.63;4959377;28;20512;-62
2024/03/14 07:22:46;;;;;;;23.25;17.73;;;14.00;99.90;;;14.34;95.10;101077.28;4960566;28;20046;-66
2024/03/14 07:25:17;;;;;;;20.88;17.45;;;14.10;99.90;;;14.46;94.71;101078.84;4959398;28;20321;-61
2024/03/14 07:27:48;;;;;;;20.60;16.55;;;14.20;99.90;;;14.61;94.38;101089.25;4960039;28;20050;-62
2024/03/14 07:30:15;;;;;;;19.20;16.55;;;14.30;99.90;;;14.54;93.40;101086.72;4959529;28;20048;-65
2024/03/14 07:32:45;;;;;;;19.42;16.40;;;14.40;99.90;;;14.77;92.72;101081.88;4959007;28;20057;-65
2024/03/14 07:35:14;;;;;;;20.15;16.25;;;14.50;99.90;;;14.74;92.14;101092.56;4959257;28;20073;-62
2024/03/14 07:37:45;;;;;;;19.40;15.38;;;14.50;99.90;;;14.86;92.28;101076.38;4959508;28;20056;-61
2024/03/14 07:40:16;;;;;;;18.60;16.10;;;14.60;99.90;;;15.03;91.78;101071.59;4959605;28;20043;-64
2024/03/14 07:42:46;;;;;;;18.67;16.10;;;14.80;99.90;;;15.19;90.93;101075.72;4959777;28;20071;-64
2024/03/14 07:45:17;;;;;;;18.98;14.80;;;14.90;99.90;;;15.34;90.48;101078.97;4943477;28;20089;-64
2024/03/14 07:47:52;;;;;;;17.40;13.95;;;15.10;99.90;;;15.43;89.77;101077.91;4959782;28;20046;-65
2024/03/14 07:50:22;;;;;;;17.02;15.23;;;15.20;99.90;;;15.57;89.54;101077.63;4960805;28;20042;-66
2024/03/14 07:52:54;;;;;;;14.95;13.45;;;15.40;99.90;;;15.61;88.56;101080.19;4944003;28;20042;-62
2024/03/14 07:55:22;;;;;;;15.55;13.13;;;15.40;99.90;;;15.68;87.99;101070.28;4943689;28;20440;-64
2024/03/14 07:57:51;;;;;;;15.95;13.45;;;15.50;99.90;;;15.85;87.58;101090.31;4959243;28;20039;-62
2024/03/14 08:00:22;;;;;;;15.35;13.05;;;15.60;99.90;;;15.73;87.10;101076.38;4958776;28;20050;-62
2024/03/14 08:02:55;;;;;;;13.88;12.48;;;15.60;99.90;;;15.85;86.66;101081.47;4959565;28;20442;-61
2024/03/14 08:05:31;;;;;;;15.00;12.57;;;15.60;99.90;;;15.96;86.53;101085.63;4960162;28;20050;-64
2024/03/14 08:08:02;;;;;;;13.73;12.43;;;15.70;99.90;;;16.11;86.47;101093.28;4960655;28;20053;-62
2024/03/14 08:10:47;;;;;;;14.55;12.35;;;15.80;99.90;;;16.13;85.24;101090.56;4962932;28;20042;-63
2024/03/14 08:13:20;;;;;;;12.90;11.50;;;15.90;99.90;;;16.30;85.23;101088.38;4958883;28;20046;-73
2024/03/14 08:15:53;;;;;;;15.75;12.00;;;16.00;99.90;;;16.46;84.52;101079.06;4959643;28;20081;-73
2024/03/14 08:18:24;;;;;;;13.85;11.93;;;16.20;99.90;;;16.64;84.22;101094.69;4959067;28;20054;-72
2024/03/14 08:20:55;;;;;;;12.50;11.30;;;16.30;99.90;;;16.82;83.40;101086.16;4958847;28;20073;-72
2024/03/14 08:23:27;;;;;;;13.18;10.48;;;16.50;99.90;;;17.00;83.18;101084.78;4959037;28;20042;-70
2024/03/14 08:25:57;;;;;;;12.63;11.32;;;16.70;99.90;;;17.05;82.07;101078.41;4943567;28;20058;-71
2024/03/14 08:28:25;;;;;;;13.88;11.43;;;16.80;99.90;;;17.02;81.43;101091.88;4958233;28;20129;-73
2024/03/14 08:30:54;;;;;;;11.50;9.30;;;16.80;99.90;;;17.14;80.90;101091.53;4958088;28;20263;-73
2024/03/14 08:33:23;;;;;;;13.38;9.90;;;16.90;99.90;;;17.11;80.50;101082.72;4958165;28;20058;-72
2024/03/14 08:35:53;;;;;;;11.60;10.45;;;16.90;99.90;;;17.24;80.01;101092.16;4958634;28;20050;-73
2024/03/14 08:38:23;;;;;;;11.48;10.27;;;17.00;99.90;;;17.41;79.95;101091.66;4958601;28;20050;-72
2024/03/14 08:40:52;;;;;;;10.80;9.68;;;17.10;99.90;;;17.55;78.96;101090.38;4958366;28;20042;-73
2024/03/14 08:43:21;;;;;;;11.68;9.88;;;17.20;99.90;;;17.55;78.60;101073.47;4942359;28;20047;-73
2024/03/14 08:45:51;;;;;;;10.75;8.95;;;17.30;99.90;;;17.47;78.75;101073.66;4957808;28;20042;-73
2024/03/14 08:48:21;;;;;;;9.63;8.63;;;17.30;99.90;;;17.51;78.84;101083.38;4959631;28;20061;-72
2024/03/14 08:50:50;;;;;;;9.60;8.70;;;17.30;99.90;;;17.54;79.29;101079.72;4943130;28;20050;-71
2024/03/14 08:53:22;;;;;;;10.33;8.87;;;17.30;99.90;;;17.56;78.63;101072.50;4958222;28;20418;-71
2024/03/14 08:55:54;;;;;;;;;;;17.30;99.90;;;17.55;78.27;101074.34;4958605;28;20479;-74
2024/03/14 08:58:25;;;;;;;9.35;8.23;;;17.30;99.90;;;17.65;78.07;101075.78;4959007;28;19976;-72
2024/03/14 09:00:56;;;;;;;11.15;9.52;;;17.40;99.90;;;17.64;77.41;101076.72;4958395;28;20045;-71
2024/03/14 09:03:27;;;;;;;9.65;8.80;;;17.40;99.90;;;17.77;78.12;101082.56;4943198;28;20061;-77
2024/03/14 09:05:57;;;;;;;9.55;8.57;;;17.50;99.90;;;17.81;77.46;101084.22;4958247;28;20042;-78
2024/03/14 09:08:26;;;;;;;10.85;9.30;;;17.50;99.90;;;17.82;77.26;101067.28;4942514;28;20045;-76
2024/03/14 09:10:55;;;;;;;10.73;8.65;;;17.50;99.90;;;17.95;77.36;101071.31;4941823;28;20458;-75
2024/03/14 09:13:25;;;;;;;9.20;8.18;;;17.70;99.90;;;18.19;77.10;101067.88;4942096;28;20057;-74
2024/03/14 09:15:55;;;;;;;9.32;8.27;;;17.90;99.90;;;18.29;76.81;101076.47;4958227;28;20050;-78
2024/03/14 09:18:24;;;;;;;8.30;7.00;;;18.10;99.90;;;18.45;76.22;101067.91;4958134;28;20046;-78
2024/03/14 09:20:56;;;;;;;10.27;7.82;;;18.20;99.90;;;18.25;74.88;101078.38;4943366;28;20379;-77
2024/03/14 09:23:27;;;;;;;8.48;7.57;;;18.10;99.90;;;18.30;75.17;101076.41;4958077;28;20049;-78
2024/03/14 09:25:57;;;;;;;9.48;7.97;;;18.00;99.90;;;18.32;74.57;101071.88;4942559;28;20046;-79
2024/03/14 09:28:26;;;;;;;9.68;8.68;;;18.10;99.90;;;18.37;75.39;101055.69;4958304;28;20381;-78
2024/03/14 09:30:58;;;;;;;8.90;8.00;;;18.10;99.90;;;18.34;75.32;101056.66;4961775;28;20557;-79
2024/03/14 09:33:28;;;;;;;8.00;7.10;;;18.10;99.90;;;18.39;75.10;101069.91;4947365;28;20050;-78
2024/03/14 09:35:57;;;;;;;7.97;7.18;;;18.10;99.90;;;18.37;74.31;101061.03;4961811;28;20365;-78
2024/03/14 09:38:27;;;;;;;8.20;7.28;;;18.10;99.90;;;18.64;75.12;101060.13;4961109;28;20050;-78
2024/03/14 09:40:56;;;;;;;9.02;7.22;;;18.30;99.90;;;18.78;74.67;101053.34;4946157;28;20054;-77
2024/03/14 09:43:37;;;;;;;8.32;7.53;;;18.50;99.90;;;18.70;73.29;101058.09;4949909;28;20050;-78
2024/03/14 09:46:06;;;;;;;10.15;6.93;;;18.50;99.90;;;18.59;72.84;101049.56;4961213;28;20046;-78
2024/03/14 09:48:35;;;;;;;8.15;7.35;;;18.40;99.90;;;18.67;73.49;101038.56;4960910;28;20046;-77
2024/03/14 09:51:05;;;;;;;8.25;7.07;;;18.40;99.90;;;18.81;73.66;101047.88;4961473;28;20050;-75
2024/03/14 09:53:35;;;;;;;7.13;6.43;;;18.50;99.90;;;18.82;73.73;101065.72;4961137;28;20443;-74
2024/03/14 09:56:04;;;;;;;8.48;6.65;;;18.60;99.90;;;18.85;74.16;101067.44;4961324;28;20050;-76
2024/03/14 09:58:33;;;;;;;9.63;7.72;;;18.60;99.90;;;18.97;73.33;101061.59;4961096;28;20038;-75
2024/03/14 10:01:03;;;;;;;9.70;7.13;;;18.70;99.90;;;19.08;72.38;101058.56;4960809;28;20357;-76
2024/03/14 10:03:33;;;;;;;9.90;7.05;;;18.80;99.90;;;19.19;71.82;101061.72;4961884;28;20058;-75
2024/03/14 10:06:14;;;;;;;7.82;7.03;;;19.00;99.90;;;19.12;71.48;101058.41;4960715;28;20054;-71
2024/03/14 10:08:46;;;;;;;7.95;6.75;;;18.90;99.90;;;19.31;71.51;101064.84;4964307;28;20035;-64